Time;durP1;ratioP1;P1;durP2;ratioP2;P2;SDS_P1;SDS_P2;PMS_P1;PMS_P2;Temp;Humidity;BMP_temperature;BMP_pressure;BME280_temperature;BME280_humidity;BME280_pressure;Samples;Min_cycle;Max_cycle;Signal;HPM_P1;HPM_P2
2023/09/09 00:01:53;;;;;;;16.85;15.05;;;;;;;19.84;93.88;101426.88;5003450;28;20837;-77
2023/09/09 00:04:20;;;;;;;18.73;15.43;;;;;;;19.86;93.62;101427.69;4999250;28;20046;-76
2023/09/09 00:06:48;;;;;;;19.10;15.45;;;;;;;19.86;94.00;101426.81;5003800;28;20045;-76
2023/09/09 00:09:15;;;;;;;21.13;15.68;;;;;;;19.82;93.81;101422.56;4998717;28;20069;-76
2023/09/09 00:11:42;;;;;;;19.25;14.95;;;;;;;19.79;93.67;101425.44;5001829;28;20088;-76
2023/09/09 00:14:09;;;;;;;19.58;14.35;;;;;;;19.77;93.85;101416.63;5005159;28;20156;-75
2023/09/09 00:16:36;;;;;;;21.58;15.27;;;;;;;19.75;93.82;101418.53;5004408;28;20414;-77
2023/09/09 00:19:05;;;;;;;19.42;15.63;;;;;;;19.72;94.02;101427.59;5002359;28;20042;-76
2023/09/09 00:21:32;;;;;;;18.05;14.68;;;;;;;19.69;94.28;101414.41;5004992;28;20049;-76
2023/09/09 00:23:59;;;;;;;19.38;14.68;;;;;;;19.66;94.10;101414.59;5003133;28;20104;-76
2023/09/09 00:26:28;;;;;;;16.55;13.30;;;;;;;19.64;93.63;101425.38;5019320;28;20041;-75
2023/09/09 00:28:56;;;;;;;17.60;13.43;;;;;;;19.62;93.94;101418.41;5019932;28;20111;-75
2023/09/09 00:31:24;;;;;;;19.55;13.93;;;;;;;19.59;94.02;101423.94;5005275;28;20084;-75
2023/09/09 00:33:53;;;;;;;16.70;13.40;;;;;;;19.54;94.52;101411.72;5002648;28;20046;-74
2023/09/09 00:36:20;;;;;;;17.50;13.55;;;;;;;19.49;94.02;101411.09;5002069;28;20091;-74
2023/09/09 00:38:47;;;;;;;17.33;13.82;;;;;;;19.44;93.70;101418.56;5004154;28;20349;-74
2023/09/09 00:41:17;;;;;;;17.25;14.23;;;;;;;19.41;93.97;101413.38;5003855;28;20491;-75
2023/09/09 00:43:47;;;;;;;19.48;14.88;;;;;;;19.36;94.03;101415.47;4996425;28;20117;-74
2023/09/09 00:46:16;;;;;;;15.40;12.90;;;;;;;19.33;94.34;101410.28;5002391;28;20052;-75
2023/09/09 00:48:44;;;;;;;15.27;13.30;;;;;;;19.28;94.68;101409.72;5000606;28;20041;-74
2023/09/09 00:51:13;;;;;;;18.35;13.80;;;;;;;19.25;94.53;101413.41;5003413;28;20038;-74
2023/09/09 00:53:41;;;;;;;16.55;13.40;;;;;;;19.22;94.25;101421.63;5003532;28;21322;-74
2023/09/09 00:56:09;;;;;;;16.58;13.23;;;;;;;19.19;94.33;101416.44;5001884;28;20049;-74
2023/09/09 00:58:37;;;;;;;15.95;14.02;;;;;;;19.16;94.18;101416.59;5002560;28;20038;-74
2023/09/09 01:01:05;;;;;;;16.58;14.82;;;;;;;19.12;94.25;101421.28;5019451;28;20907;-74
2023/09/09 01:03:33;;;;;;;18.73;15.15;;;;;;;19.09;94.28;101416.09;4999567;28;20045;-74
2023/09/09 01:06:03;;;;;;;18.70;15.23;;;;;;;19.05;94.22;101415.41;5036087;28;20717;-74
2023/09/09 01:08:31;;;;;;;16.90;13.25;;;;;;;19.02;94.59;101415.59;5004179;28;20042;-74
2023/09/09 01:10:58;;;;;;;18.40;14.15;;;;;;;18.98;94.62;101416.72;5003950;28;20116;-74
2023/09/09 01:13:25;;;;;;;22.73;14.43;;;;;;;18.95;94.88;101413.38;5001185;28;20072;-74
2023/09/09 01:15:53;;;;;;;16.75;14.18;;;;;;;18.91;95.26;101409.97;4993036;28;20601;-74
2023/09/09 01:18:21;;;;;;;17.65;14.38;;;;;;;18.90;95.36;101419.78;4980799;28;20042;-74
2023/09/09 01:21:06;;;;;;;15.75;13.80;;;;;;;18.89;95.21;101414.53;5004264;28;20468;-74
2023/09/09 01:23:35;;;;;;;17.45;13.77;;;;;;;18.86;95.35;101414.69;4997125;28;20115;-74
2023/09/09 01:26:02;;;;;;;19.70;13.57;;;;;;;18.84;95.67;101413.91;4987158;28;20049;-74
2023/09/09 01:28:30;;;;;;;17.30;14.02;;;;;;;18.81;95.74;101406.94;5019656;28;20509;-74
2023/09/09 01:30:58;;;;;;;18.25;15.10;;;;;;;18.78;95.71;101410.66;5002011;28;20048;-74
2023/09/09 01:33:25;;;;;;;18.38;14.38;;;;;;;18.74;95.82;101406.44;5001270;28;20049;-74
2023/09/09 01:35:52;;;;;;;17.77;15.52;;;;;;;18.70;95.92;101410.25;5004919;28;20037;-74
2023/09/09 01:38:19;;;;;;;22.60;15.88;;;;;;;18.68;96.12;101408.56;5002121;28;20042;-75
2023/09/09 01:40:46;;;;;;;17.83;15.70;;;;;;;18.67;96.29;101404.22;5002144;28;20100;-75
2023/09/09 01:43:14;;;;;;;19.48;16.33;;;;;;;18.66;96.43;101406.00;5003951;28;20037;-75
2023/09/09 01:45:41;;;;;;;18.55;15.10;;;;;;;18.63;96.34;101411.50;5018351;28;20449;-74
2023/09/09 01:48:08;;;;;;;21.60;15.23;;;;;;;18.62;96.58;101401.75;5000893;28;20061;-75
2023/09/09 01:50:36;;;;;;;17.92;14.82;;;;;;;18.60;96.26;101401.00;5002246;28;20042;-75
2023/09/09 01:53:03;;;;;;;18.98;15.55;;;;;;;18.58;96.07;101401.06;5002926;28;20306;-75
2023/09/09 01:55:30;;;;;;;18.75;16.42;;;;;;;18.55;96.13;101401.28;4997665;28;20481;-75
2023/09/09 01:57:58;;;;;;;19.08;16.65;;;;;;;18.52;95.62;101400.59;5016875;28;20038;-75
2023/09/09 02:00:27;;;;;;;20.70;15.70;;;;;;;18.51;95.87;101406.88;5002543;28;20454;-74
2023/09/09 02:02:55;;;;;;;19.58;15.93;;;;;;;18.50;95.68;101407.81;5003293;28;20546;-74
2023/09/09 02:05:22;;;;;;;19.30;16.00;;;;;;;18.46;95.71;101404.44;5003089;28;20044;-74
2023/09/09 02:07:50;;;;;;;19.77;15.40;;;;;;;18.45;95.60;101410.72;5034452;28;20050;-74
2023/09/09 02:10:18;;;;;;;17.08;14.65;;;;;;;18.44;95.84;101419.69;4997887;28;20046;-75
2023/09/09 02:12:45;;;;;;;18.67;15.43;;;;;;;18.41;96.00;101406.50;5016304;28;20034;-75
2023/09/09 02:15:13;;;;;;;18.58;15.52;;;;;;;18.41;95.93;101404.69;5002116;28;20113;-75
2023/09/09 02:17:41;;;;;;;18.52;15.63;;;;;;;18.39;96.02;101409.25;5002910;28;20693;-74
2023/09/09 02:20:09;;;;;;;21.08;16.10;;;;;;;18.37;96.17;101413.81;5001634;28;20155;-74
2023/09/09 02:22:37;;;;;;;20.42;15.75;;;;;;;18.34;96.13;101400.63;5003143;28;20046;-74
2023/09/09 02:25:06;;;;;;;17.60;15.80;;;;;;;18.34;95.95;101403.28;5001988;28;20077;-74
2023/09/09 02:27:35;;;;;;;19.98;15.40;;;;;;;18.33;96.04;101406.03;5002373;28;20574;-73
2023/09/09 02:30:04;;;;;;;17.50;15.07;;;;;;;18.31;95.82;101398.97;5005869;28;20486;-73
2023/09/09 02:32:31;;;;;;;16.55;14.70;;;;;;;18.29;96.00;101400.88;5002023;28;20120;-73
2023/09/09 02:34:59;;;;;;;19.85;14.50;;;;;;;18.27;95.89;101404.56;5019622;28;20567;-73
2023/09/09 02:37:27;;;;;;;18.20;16.15;;;;;;;18.24;95.76;101408.28;5006655;28;20049;-76
2023/09/09 02:39:54;;;;;;;17.00;15.20;;;;;;;18.21;95.69;101400.44;5004040;28;20538;-75
2023/09/09 02:42:23;;;;;;;19.88;16.50;;;;;;;18.20;95.87;101404.03;5006315;28;20053;-75
2023/09/09 02:44:50;;;;;;;20.42;16.98;;;;;;;18.18;95.78;101403.25;5021573;28;20129;-75
2023/09/09 02:47:19;;;;;;;20.77;16.52;;;;;;;18.17;95.99;101409.53;5003463;28;20057;-75
2023/09/09 02:49:49;;;;;;;21.45;17.60;;;;;;;18.15;95.92;101401.63;5006766;28;20038;-75
2023/09/09 02:52:17;;;;;;;20.17;17.67;;;;;;;18.14;96.01;101401.72;5017920;28;20557;-75
2023/09/09 02:54:44;;;;;;;21.75;17.70;;;;;;;18.13;95.96;101403.50;5003558;28;20077;-76
2023/09/09 02:57:12;;;;;;;21.23;17.13;;;;;;;18.11;96.14;101402.72;5005963;28;20133;-76
2023/09/09 02:59:39;;;;;;;24.40;17.70;;;;;;;18.11;95.79;101399.19;4998892;28;20037;-75
2023/09/09 03:02:09;;;;;;;19.15;16.23;;;;;;;18.11;95.63;101401.84;5019644;28;20049;-75
2023/09/09 03:04:37;;;;;;;18.27;15.35;;;;;;;18.09;95.86;101403.75;5001468;28;20452;-75
2023/09/09 03:07:04;;;;;;;20.75;16.55;;;;;;;18.09;95.61;101403.75;5004466;28;20042;-75
2023/09/09 03:09:32;;;;;;;18.30;15.32;;;;;;;18.06;95.88;101396.78;5005020;28;20104;-73
2023/09/09 03:12:01;;;;;;;21.05;16.75;;;;;;;18.06;95.76;101403.94;5003748;28;20119;-73
2023/09/09 03:14:28;;;;;;;18.63;16.63;;;;;;;18.06;95.90;101407.44;5003281;28;20042;-74
2023/09/09 03:16:58;;;;;;;19.55;16.25;;;;;;;18.07;95.82;101406.50;5017254;28;20077;-73
2023/09/09 03:19:26;;;;;;;20.27;16.35;;;;;;;18.05;95.71;101400.38;5035245;28;20088;-73
2023/09/09 03:21:53;;;;;;;21.27;17.15;;;;;;;18.06;95.90;101401.25;5003611;28;20042;-73
2023/09/09 03:24:20;;;;;;;19.58;16.83;;;;;;;18.05;96.09;101402.19;5004642;28;20505;-74
2023/09/09 03:26:48;;;;;;;18.52;15.75;;;;;;;18.04;96.16;101409.31;5002759;28;20046;-74
2023/09/09 03:29:15;;;;;;;20.10;16.70;;;;;;;18.03;95.95;101410.25;5005236;28;20142;-74
2023/09/09 03:31:42;;;;;;;18.67;15.93;;;;;;;18.03;96.41;101409.41;5003749;28;20038;-73
2023/09/09 03:34:09;;;;;;;19.73;16.52;;;;;;;18.03;96.50;101412.09;5003134;28;20042;-74
2023/09/09 03:36:36;;;;;;;17.80;15.90;;;;;;;18.02;96.22;101413.03;5002965;28;20053;-74
2023/09/09 03:39:03;;;;;;;19.92;16.05;;;;;;;18.00;96.44;101413.97;4996057;28;20046;-74
2023/09/09 03:41:31;;;;;;;22.52;16.23;;;;;;;17.99;96.51;101408.72;5002512;28;20124;-74
2023/09/09 03:43:58;;;;;;;21.08;15.82;;;;;;;17.94;96.49;101406.25;5010436;28;20045;-74
2023/09/09 03:46:26;;;;;;;19.05;15.90;;;;;;;17.92;96.27;101408.13;5001074;28;20053;-74
2023/09/09 03:48:55;;;;;;;18.77;16.48;;;;;;;17.90;96.38;101412.69;5002659;28;20064;-74
2023/09/09 03:51:23;;;;;;;19.40;16.30;;;;;;;17.88;96.65;101411.91;5001406;28;20056;-74
2023/09/09 03:53:51;;;;;;;20.55;16.50;;;;;;;17.85;96.71;101417.41;4988123;28;20363;-75
2023/09/09 03:56:20;;;;;;;18.27;16.27;;;;;;;17.83;96.68;101420.13;4978773;28;20057;-74
2023/09/09 03:58:47;;;;;;;22.23;16.48;;;;;;;17.81;96.88;101421.16;5002131;28;20066;-74
2023/09/09 04:01:14;;;;;;;19.52;16.70;;;;;;;17.79;97.07;101415.94;4997508;28;20049;-75
2023/09/09 04:03:42;;;;;;;24.30;17.75;;;;;;;17.78;97.27;101411.53;5017954;28;21000;-75
2023/09/09 04:06:13;;;;;;;23.30;17.65;;;;;;;17.74;97.19;101411.78;5002001;28;20046;-75
2023/09/09 04:08:42;;;;;;;18.85;16.65;;;;;;;17.70;97.18;101416.41;5035614;28;20068;-74
2023/09/09 04:11:10;;;;;;;19.23;16.08;;;;;;;17.66;97.55;101420.16;5013320;28;20046;-74
2023/09/09 04:13:38;;;;;;;22.88;17.90;;;;;;;17.64;97.55;101416.69;5002687;28;20050;-74
2023/09/09 04:16:07;;;;;;;21.85;17.95;;;;;;;17.61;97.57;101417.72;5021374;28;20096;-75
2023/09/09 04:18:34;;;;;;;18.65;16.33;;;;;;;17.61;97.90;101414.19;4996991;28;20531;-74
2023/09/09 04:21:14;;;;;;;20.40;16.95;;;;;;;17.58;97.81;101404.53;4990677;28;20053;-75
2023/09/09 04:23:41;;;;;;;19.77;16.75;;;;;;;17.57;97.91;101409.97;5017001;28;20034;-75
2023/09/09 04:26:09;;;;;;;17.52;15.15;;;;;;;17.55;97.53;101410.00;5003908;28;20046;-75
2023/09/09 04:28:36;;;;;;;19.30;16.63;;;;;;;17.55;97.98;101410.00;5002449;28;20775;-74
2023/09/09 04:31:04;;;;;;;18.85;16.17;;;;;;;17.54;98.08;101413.66;5003518;28;20092;-75
2023/09/09 04:33:33;;;;;;;18.88;16.38;;;;;;;17.53;98.04;101411.91;4984092;28;20057;-75
2023/09/09 04:36:00;;;;;;;18.67;15.57;;;;;;;17.52;98.14;101410.19;5003751;28;20100;-74
2023/09/09 04:38:28;;;;;;;20.50;16.20;;;;;;;17.52;98.09;101400.38;5018119;28;20041;-75
2023/09/09 04:41:01;;;;;;;19.98;16.30;;;;;;;17.52;98.04;101418.19;5004194;28;20042;-75
2023/09/09 04:43:28;;;;;;;17.48;15.68;;;;;;;17.51;97.99;101411.13;5035149;28;20046;-74
2023/09/09 04:45:55;;;;;;;18.60;15.93;;;;;;;17.51;98.32;101408.47;5019053;28;20050;-74
2023/09/09 04:48:22;;;;;;;18.80;16.80;;;;;;;17.49;98.02;101411.22;5032227;28;20041;-75
2023/09/09 04:50:50;;;;;;;19.40;15.82;;;;;;;17.50;98.08;101415.59;4999250;28;20128;-66
2023/09/09 04:53:17;;;;;;;18.13;15.50;;;;;;;17.47;97.95;101410.44;4996507;28;20046;-75
2023/09/09 04:55:44;;;;;;;17.67;15.45;;;;;;;17.47;97.84;101412.22;4998657;28;20495;-74
2023/09/09 04:58:12;;;;;;;20.42;15.88;;;;;;;17.46;97.97;101421.16;5004006;28;20125;-75
2023/09/09 05:00:40;;;;;;;17.45;14.80;;;;;;;17.42;98.21;101416.94;5002255;28;20038;-75
2023/09/09 05:03:10;;;;;;;17.83;15.65;;;;;;;17.40;98.08;101422.31;4999637;28;20156;-75
2023/09/09 05:05:37;;;;;;;17.40;14.48;;;;;;;17.39;98.18;101426.78;4998813;28;20116;-73
2023/09/09 05:08:05;;;;;;;17.48;14.48;;;;;;;17.40;98.44;101424.97;4995679;28;20472;-74
2023/09/09 05:10:34;;;;;;;17.85;15.38;;;;;;;17.38;98.44;101426.88;5000765;28;20061;-73
2023/09/09 05:13:05;;;;;;;19.02;16.48;;;;;;;17.38;98.30;101425.06;5003959;28;20211;-72
2023/09/09 05:15:35;;;;;;;19.90;16.55;;;;;;;17.38;98.52;101427.72;4999325;28;20124;-73
2023/09/09 05:18:03;;;;;;;18.20;15.88;;;;;;;17.38;98.42;101432.22;5017233;28;20512;-75
2023/09/09 05:20:31;;;;;;;17.88;15.95;;;;;;;17.37;98.58;101433.16;5013897;28;20122;-73
2023/09/09 05:22:58;;;;;;;17.42;15.48;;;;;;;17.37;98.66;101423.34;4998589;28;20113;-75
2023/09/09 05:25:27;;;;;;;20.48;16.90;;;;;;;17.41;98.47;101434.69;4993915;28;20621;-74
2023/09/09 05:27:54;;;;;;;21.58;18.25;;;;;;;17.42;98.46;101435.59;5013676;28;20414;-74
2023/09/09 05:30:22;;;;;;;18.77;16.77;;;;;;;17.44;98.73;101442.56;5002345;28;20038;-74
2023/09/09 05:32:49;;;;;;;21.95;17.35;;;;;;;17.46;98.31;101446.00;5001061;28;20475;-74
2023/09/09 05:35:16;;;;;;;24.50;18.10;;;;;;;17.50;98.48;101452.03;4999490;28;20046;-74
2023/09/09 05:37:45;;;;;;;28.15;19.10;;;;;;;17.54;98.39;101450.97;4988406;28;20062;-74
2023/09/09 05:40:13;;;;;;;23.98;17.90;;;;;;;17.58;98.52;101451.66;5003544;28;20573;-74
2023/09/09 05:42:40;;;;;;;20.90;17.60;;;;;;;17.61;98.42;101444.38;5013114;28;20045;-74
2023/09/09 05:45:12;;;;;;;26.50;19.30;;;;;;;17.66;98.49;101450.31;5009909;28;20078;-74
2023/09/09 05:47:46;;;;;;;26.67;19.45;;;;;;;17.72;98.45;101454.50;5001396;28;20768;-74
2023/09/09 05:50:13;;;;;;;24.42;18.92;;;;;;;17.76;98.10;101457.84;5017819;28;20159;-75
2023/09/09 05:52:43;;;;;;;22.83;18.50;;;;;;;17.81;98.24;101450.50;5034064;28;20486;-74
2023/09/09 05:55:10;;;;;;;22.98;19.90;;;;;;;17.86;97.80;101448.44;5017468;28;20592;-72
2023/09/09 05:57:39;;;;;;;23.70;20.25;;;;;;;17.92;98.00;101456.16;4998897;28;20045;-72
2023/09/09 06:00:07;;;;;;;21.15;18.42;;;;;;;17.99;97.59;101465.59;5015255;28;20045;-74
2023/09/09 06:02:43;;;;;;;25.27;20.73;;;;;;;18.04;97.58;101461.81;4989057;28;20053;-74
2023/09/09 06:05:11;;;;;;;26.63;21.80;;;;;;;18.12;97.57;101464.94;5001410;28;20046;-74
2023/09/09 06:07:38;;;;;;;26.23;20.45;;;;;;;18.19;97.31;101458.34;4999381;28;20203;-78
2023/09/09 06:10:09;;;;;;;26.20;22.55;;;;;;;18.27;97.49;101464.13;5000988;28;20038;-79
2023/09/09 06:12:36;;;;;;;27.35;24.05;;;;;;;18.35;97.44;101471.75;5001805;28;20069;-79
2023/09/09 06:15:04;;;;;;;27.15;21.95;;;;;;;18.43;97.52;101471.34;5007781;28;20107;-79
2023/09/09 06:17:31;;;;;;;29.27;23.45;;;;;;;18.52;96.78;101472.66;5024285;28;20046;-85
2023/09/09 06:19:58;;;;;;;46.80;33.67;;;;;;;18.61;96.89;101474.81;4991327;28;20042;-79
2023/09/09 06:22:26;;;;;;;51.10;38.58;;;;;;;18.70;97.05;101477.00;4999511;28;20612;-80
2023/09/09 06:24:53;;;;;;;67.43;46.53;;;;;;;18.80;96.73;101472.00;4988348;28;20042;-80
2023/09/09 06:27:21;;;;;;;71.75;50.30;;;;;;;18.91;96.98;101480.28;5000638;28;20048;-79
2023/09/09 06:29:48;;;;;;;71.45;52.00;;;;;;;19.03;97.44;101484.09;5005719;28;20057;-79
2023/09/09 06:32:15;;;;;;;46.35;35.88;;;;;;;19.16;97.25;101483.41;5005175;28;20128;-78
2023/09/09 06:34:43;;;;;;;65.80;46.38;;;;;;;19.30;97.34;101488.84;5000494;28;20065;-79
2023/09/09 06:37:10;;;;;;;56.10;43.47;;;;;;;19.45;97.42;101481.78;5006591;28;20057;-78
2023/09/09 06:39:37;;;;;;;57.78;44.65;;;;;;;19.64;97.17;101488.72;5006256;28;20042;-78
2023/09/09 06:42:09;;;;;;;43.83;34.03;;;;;;;19.76;96.25;101489.78;5000975;28;20065;-78
2023/09/09 06:44:44;;;;;;;55.33;43.75;;;;;;;19.86;95.95;101491.88;5004025;28;20493;-78
2023/09/09 06:47:12;;;;;;;54.95;41.80;;;;;;;19.92;95.73;101495.13;5007464;28;20121;-78
2023/09/09 06:49:39;;;;;;;54.85;42.13;;;;;;;19.93;95.30;101505.75;5021846;28;20041;-78
2023/09/09 06:52:06;;;;;;;62.58;47.05;;;;;;;19.98;95.87;101506.34;5004084;28;20053;-78
2023/09/09 06:54:34;;;;;;;75.85;52.92;;;;;;;19.98;95.62;101513.53;5004388;28;20129;-78
2023/09/09 06:57:01;;;;;;;81.03;58.88;;;;;;;19.98;95.96;101509.00;5001208;28;20049;-78
2023/09/09 06:59:30;;;;;;;88.80;63.17;;;;;;;20.00;96.10;101508.91;5003615;28;20046;-78
2023/09/09 07:01:57;;;;;;;82.53;58.97;;;;;;;20.00;96.12;101509.78;4988143;28;20599;-78
2023/09/09 07:04:24;;;;;;;76.20;58.45;;;;;;;20.06;96.46;101507.69;5002294;28;20038;-79
2023/09/09 07:06:51;;;;;;;79.25;58.10;;;;;;;20.10;96.36;101510.09;5004932;28;20034;-78
2023/09/09 07:09:38;;;;;;;82.18;60.42;;;;;;;20.10;96.67;101512.75;5004032;28;20550;-78
2023/09/09 07:12:06;;;;;;;89.63;66.25;;;;;;;20.13;96.39;101509.06;5001822;28;20064;-78
2023/09/09 07:14:33;;;;;;;97.43;69.57;;;;;;;20.17;96.82;101510.59;5005101;28;20050;-78
2023/09/09 07:17:04;;;;;;;109.97;74.07;;;;;;;20.24;96.76;101505.72;5010488;28;20053;-79
2023/09/09 07:19:31;;;;;;;120.25;77.82;;;;;;;20.33;96.49;101508.72;5006752;28;20104;-78
2023/09/09 07:21:58;;;;;;;126.88;75.85;;;;;;;20.41;96.29;101507.38;5008134;28;20522;-78
2023/09/09 07:24:25;;;;;;;150.90;78.10;;;;;;;20.44;96.39;101505.38;5013185;28;20049;-79
2023/09/09 07:26:52;;;;;;;175.82;77.00;;;;;;;20.45;96.56;101514.28;5001846;28;20049;-78
2023/09/09 07:29:20;;;;;;;161.32;76.78;;;;;;;20.43;96.37;101525.06;5006168;28;20076;-79
2023/09/09 07:31:47;;;;;;;171.70;75.43;;;;;;;20.43;96.27;101519.69;5001615;28;20045;-78
2023/09/09 07:34:14;;;;;;;160.57;75.50;;;;;;;20.53;95.94;101529.84;5001383;28;20160;-79
2023/09/09 07:36:42;;;;;;;135.52;76.32;;;;;;;20.59;95.99;101527.66;5001357;28;20046;-75
2023/09/09 07:39:11;;;;;;;243.88;78.30;;;;;;;20.66;95.94;101527.25;5004087;28;20046;-78
2023/09/09 07:41:38;;;;;;;123.80;74.60;;;;;;;20.70;96.66;101526.13;5001934;28;20498;-78
2023/09/09 07:44:06;;;;;;;148.05;73.05;;;;;;;20.78;96.53;101516.69;5005463;28;20030;-78
2023/09/09 07:46:35;;;;;;;123.00;72.40;;;;;;;20.86;95.96;101521.53;5020206;28;20128;-78
2023/09/09 07:49:08;;;;;;;165.90;71.82;;;;;;;20.89;95.54;101520.53;5022515;28;20525;-72
2023/09/09 07:51:35;;;;;;;119.20;69.75;;;;;;;20.89;95.06;101521.38;5020282;28;20057;-73
2023/09/09 07:54:02;;;;;;;227.23;73.68;;;;;;;20.87;95.27;101527.78;5003561;28;20045;-73
2023/09/09 07:56:29;;;;;;;130.50;74.22;;;;;;;20.89;95.51;101524.03;5003665;28;20760;-73
2023/09/09 07:58:56;;;;;;;130.13;75.05;;;;;;;21.01;95.44;101522.41;5002968;28;20038;-73
2023/09/09 08:01:23;;;;;;;157.13;70.95;;;;;;;21.19;95.14;101533.75;5005464;28;20552;-73
2023/09/09 08:03:51;;;;;;;103.80;67.95;;;;;;;21.31;94.66;101528.56;5000578;28;20149;-73
2023/09/09 08:06:20;;;;;;;149.27;71.38;;;;;;;21.44;94.28;101531.31;5031697;28;20048;-73
2023/09/09 08:08:48;;;;;;;110.53;69.75;;;;;;;21.56;94.05;101534.06;5019227;28;20164;-72
2023/09/09 08:11:17;;;;;;;109.53;68.22;;;;;;;21.68;93.76;101537.78;5001109;28;20066;-73
2023/09/09 08:13:44;;;;;;;130.15;67.57;;;;;;;21.81;92.61;101534.28;4999040;28;20052;-73
2023/09/09 08:16:11;;;;;;;109.28;69.28;;;;;;;21.78;91.36;101538.00;5005804;28;20041;-72
2023/09/09 08:18:38;;;;;;;119.60;69.93;;;;;;;21.72;90.97;101530.38;5003486;28;20064;-73
2023/09/09 08:21:06;;;;;;;110.10;70.70;;;;;;;21.65;91.71;101537.97;4997140;28;20040;-73
2023/09/09 08:23:33;;;;;;;106.40;68.22;;;;;;;21.63;91.64;101544.41;5001481;28;20092;-73
2023/09/09 08:26:01;;;;;;;112.93;71.30;;;;;;;21.62;91.99;101546.22;4999827;28;20465;-73
2023/09/09 08:28:28;;;;;;;112.43;70.43;;;;;;;21.63;91.85;101544.41;5002892;28;20070;-73
2023/09/09 08:31:00;;;;;;;111.05;69.68;;;;;;;21.69;92.54;101542.19;5003373;28;20041;-72
2023/09/09 08:33:27;;;;;;;108.65;70.65;;;;;;;21.78;92.23;101550.56;5001063;28;20517;-73
2023/09/09 08:35:59;;;;;;;116.78;73.80;;;;;;;21.86;92.33;101543.75;5001505;28;20046;-73
2023/09/09 08:38:26;;;;;;;113.70;72.78;;;;;;;21.90;92.15;101547.06;5001967;28;20111;-73
2023/09/09 08:41:00;;;;;;;117.28;74.75;;;;;;;21.95;91.78;101552.13;5005287;28;20047;-73
2023/09/09 08:43:37;;;;;;;;;;;;;;;22.01;92.14;101555.28;5011811;28;20045;-73
2023/09/09 08:46:14;;;;;;;108.97;70.82;;;;;;;22.09;91.72;101552.03;5001481;28;19925;-73
2023/09/09 08:48:43;;;;;;;103.88;69.32;;;;;;;22.19;91.84;101561.19;5001512;28;20033;-73
2023/09/09 08:51:18;;;;;;;109.15;70.85;;;;;;;22.30;91.41;101567.66;5005225;28;20079;-73
2023/09/09 08:53:49;;;;;;;96.15;65.88;;;;;;;22.40;91.41;101563.41;5006720;28;20088;-72
2023/09/09 08:56:18;;;;;;;98.10;66.68;;;;;;;22.52;90.88;101569.75;5004106;28;20046;-73
2023/09/09 08:58:45;;;;;;;92.97;65.30;;;;;;;22.61;90.55;101574.50;5002539;28;20084;-73
2023/09/09 09:01:15;;;;;;;95.13;63.63;;;;;;;22.71;90.10;101568.47;5000430;28;20042;-73
2023/09/09 09:03:45;;;;;;;99.03;64.43;;;;;;;22.81;89.75;101564.16;4998672;28;20045;-73
2023/09/09 09:06:12;;;;;;;80.70;56.10;;;;;;;22.92;89.72;101569.63;4992543;28;20054;-73
2023/09/09 09:08:40;;;;;;;80.53;56.58;;;;;;;23.04;89.08;101567.88;5000888;28;20426;-73
2023/09/09 09:11:11;;;;;;;74.75;50.85;;;;;;;23.15;88.73;101572.47;5003637;28;20104;-73
2023/09/09 09:13:40;;;;;;;71.18;47.97;;;;;;;23.29;87.55;101567.97;5005534;28;20069;-72
2023/09/09 09:16:08;;;;;;;57.95;41.67;;;;;;;23.40;87.21;101565.34;5034354;28;20124;-73
2023/09/09 09:18:36;;;;;;;62.45;45.40;;;;;;;23.53;86.33;101571.56;5006095;28;20038;-73
2023/09/09 09:21:09;;;;;;;66.75;45.95;;;;;;;23.64;86.41;101570.75;5003770;28;20042;-73
2023/09/09 09:23:46;;;;;;;62.58;45.90;;;;;;;23.76;84.87;101570.81;5005200;28;20034;-73
2023/09/09 09:26:27;;;;;;;55.72;43.00;;;;;;;23.84;84.61;101573.78;5002185;28;20049;-73
2023/09/09 09:28:56;;;;;;;62.45;45.88;;;;;;;23.94;84.59;101574.81;5000454;28;20122;-73
2023/09/09 09:31:27;;;;;;;65.93;46.33;;;;;;;24.08;83.96;101572.94;5016615;28;20038;-74
2023/09/09 09:33:56;;;;;;;60.22;45.28;;;;;;;24.15;84.37;101575.06;4996518;28;20151;-71
2023/09/09 09:36:24;;;;;;;59.13;43.10;;;;;;;24.29;84.24;101571.28;4999364;28;20125;-71
2023/09/09 09:38:54;;;;;;;60.70;45.13;;;;;;;24.41;83.43;101568.63;5001390;28;20048;-72
2023/09/09 09:41:22;;;;;;;59.25;43.60;;;;;;;24.49;83.12;101566.19;5004215;28;20131;-71
2023/09/09 09:43:51;;;;;;;57.40;44.13;;;;;;;24.59;82.49;101567.19;5002920;28;20455;-71
2023/09/09 09:46:20;;;;;;;58.38;42.72;;;;;;;24.66;82.07;101563.00;5002637;28;20054;-71
2023/09/09 09:48:49;;;;;;;49.58;37.42;;;;;;;24.78;81.25;101571.13;5010701;28;20050;-71
2023/09/09 09:51:16;;;;;;;49.03;36.65;;;;;;;24.86;80.74;101568.69;5000477;28;20128;-71
2023/09/09 09:53:49;;;;;;;50.67;37.17;;;;;;;24.96;80.27;101574.22;5002429;28;20042;-71
2023/09/09 09:56:17;;;;;;;51.95;39.35;;;;;;;25.05;80.08;101572.59;5001418;28;20418;-71
2023/09/09 09:58:47;;;;;;;53.08;38.35;;;;;;;25.17;79.54;101568.06;5026865;28;20050;-72
2023/09/09 10:01:14;;;;;;;53.13;37.25;;;;;;;25.24;78.92;101570.13;4991130;28;20050;-72
2023/09/09 10:04:00;;;;;;;47.47;36.05;;;;;;;25.32;78.36;101574.91;5000172;28;20065;-72
2023/09/09 10:06:29;;;;;;;52.97;37.70;;;;;;;25.41;77.79;101567.94;5001550;28;20042;-71
2023/09/09 10:09:18;;;;;;;49.72;35.63;;;;;;;25.53;77.18;101564.22;5008577;28;20049;-71
2023/09/09 10:12:02;;;;;;;49.80;36.03;;;;;;;25.67;76.74;101565.78;5026778;28;20042;-71
2023/09/09 10:14:31;;;;;;;51.60;36.47;;;;;;;25.79;76.55;101571.13;4999709;28;20053;-71
2023/09/09 10:17:00;;;;;;;46.88;35.78;;;;;;;25.88;75.85;101562.25;4998265;28;20136;-71
2023/09/09 10:19:29;;;;;;;43.50;32.85;;;;;;;25.99;73.10;101564.91;4998205;28;20127;-71
2023/09/09 10:21:58;;;;;;;48.30;35.20;;;;;;;26.07;72.63;101558.00;4996608;28;20455;-72
2023/09/09 10:24:28;;;;;;;47.13;35.20;;;;;;;26.15;72.50;101561.75;5008312;28;20068;-71
2023/09/09 10:26:58;;;;;;;42.33;33.00;;;;;;;26.24;71.69;101553.88;4998416;28;20121;-71
2023/09/09 10:29:27;;;;;;;43.67;30.88;;;;;;;26.32;69.91;101551.38;5000533;28;20085;-71
2023/09/09 10:31:57;;;;;;;45.95;35.58;;;;;;;26.39;70.20;101549.84;4994464;28;20486;-72
2023/09/09 10:34:26;;;;;;;53.10;37.83;;;;;;;26.48;69.98;101550.88;4989087;28;20129;-72
2023/09/09 10:36:57;;;;;;;45.92;33.75;;;;;;;26.55;70.78;101557.47;5008488;28;20069;-72
2023/09/09 10:39:31;;;;;;;49.58;37.20;;;;;;;26.64;70.82;101558.50;4985533;28;20128;-72
2023/09/09 10:41:59;;;;;;;51.08;36.58;;;;;;;26.73;70.52;101556.81;4999765;28;20038;-71
2023/09/09 10:44:27;;;;;;;45.75;35.42;;;;;;;26.83;69.58;101559.63;5000094;28;20049;-72
2023/09/09 10:46:56;;;;;;;44.92;34.75;;;;;;;26.89;69.33;101554.53;4990340;28;20042;-72
2023/09/09 10:49:31;;;;;;;47.03;33.60;;;;;;;26.97;68.85;101556.53;4988974;28;20155;-71
2023/09/09 10:52:00;;;;;;;37.78;27.88;;;;;;;27.04;68.16;101555.00;5005115;28;20050;-72
2023/09/09 10:54:33;;;;;;;40.75;28.00;;;;;;;27.14;65.96;101555.03;5014768;28;20049;-72
2023/09/09 10:57:02;;;;;;;37.20;29.45;;;;;;;27.20;66.33;101559.91;5003871;28;20528;-72
2023/09/09 10:59:32;;;;;;;36.17;27.70;;;;;;;27.30;65.85;101556.34;4996828;28;20099;-72
2023/09/09 11:02:18;;;;;;;34.13;27.25;;;;;;;27.36;64.12;101561.19;4999941;28;20046;-72
2023/09/09 11:05:00;;;;;;;31.38;24.90;;;;;;;27.39;64.79;101555.50;5001813;28;20052;-72
2023/09/09 11:07:43;;;;;;;32.53;24.50;;;;;;;27.50;64.18;101559.97;4998857;28;20050;-72
2023/09/09 11:10:17;;;;;;;34.80;26.42;;;;;;;27.61;64.20;101556.28;4997707;28;20628;-72
2023/09/09 11:12:58;;;;;;;32.28;25.05;;;;;;;27.68;63.33;101560.97;4997162;28;20955;-72
2023/09/09 11:15:26;;;;;;;33.33;25.77;;;;;;;27.77;63.12;101561.16;4995964;28;20053;-72
2023/09/09 11:17:53;;;;;;;31.88;24.95;;;;;;;27.86;63.04;101552.16;5014757;28;20054;-72